Terminal Aerodrome Forecast
Issued by NWS Twin Cities, MN

Home | Current Version | Previous Version | Text Only | Print | Product List | Glossary Off
Versions: 1 2 3 4 5 6 7 8 9 10 11 12 13 14 15 16 17 18 19 20 21 22 23 24 25

000
FTUS43 KMPX 291720
TAFMSP
TAF
KMSP 291720Z 2918/3024 26020G30KT P6SM SKC
     FM292330 28008G15KT P6SM SKC
     FM300200 27007KT P6SM SKC
     FM301500 29012G18KT P6SM SKC=

USA.gov is the U.S. government's official web portal to all federal, state and local government web resources and services.